createdAt,value
2023-02-21T00:00:36.046Z,11.80
2023-02-21T00:03:21.341Z,11.90
2023-02-21T00:06:06.632Z,11.90
2023-02-21T00:08:52.418Z,11.90
2023-02-21T00:11:37.620Z,11.80
2023-02-21T00:14:23.077Z,11.90
2023-02-21T00:17:09.703Z,11.90
2023-02-21T00:19:55.022Z,11.80
2023-02-21T00:22:40.663Z,11.90
2023-02-21T00:25:26.431Z,11.90
2023-02-21T00:28:12.069Z,11.90
2023-02-21T00:30:57.546Z,11.80
2023-02-21T00:33:44.370Z,11.80
2023-02-21T00:36:35.260Z,11.80
2023-02-21T00:39:21.047Z,11.80
2023-02-21T00:42:06.467Z,11.80
2023-02-21T00:44:51.793Z,11.80
2023-02-21T00:47:37.198Z,11.90
2023-02-21T00:50:24.908Z,11.90
2023-02-21T00:53:11.001Z,11.80
2023-02-21T00:55:56.899Z,11.90
2023-02-21T00:58:42.414Z,11.90
2023-02-21T01:01:27.764Z,11.80
2023-02-21T01:04:13.527Z,11.80
2023-02-21T01:07:00.153Z,11.90
2023-02-21T01:09:45.913Z,11.90
2023-02-21T01:12:32.708Z,11.90
2023-02-21T01:15:18.427Z,11.90
2023-02-21T01:18:04.011Z,11.90
2023-02-21T01:20:49.241Z,11.90
2023-02-21T01:23:36.213Z,11.90
2023-02-21T01:26:22.372Z,11.80
2023-02-21T01:29:08.161Z,11.90
2023-02-21T01:31:53.562Z,11.90
2023-02-21T01:34:38.958Z,11.80
2023-02-21T01:37:24.763Z,11.80
2023-02-21T01:40:11.871Z,11.90
2023-02-21T01:42:57.194Z,11.80
2023-02-21T01:46:03.004Z,11.80
2023-02-21T01:48:49.266Z,11.80
2023-02-21T01:51:39.382Z,11.80
2023-02-21T01:54:27.342Z,11.80
2023-02-21T01:57:18.261Z,11.90
2023-02-21T02:00:04.081Z,11.90
2023-02-21T02:03:07.618Z,11.80
2023-02-21T02:05:55.183Z,11.80
2023-02-21T02:08:45.054Z,11.90
2023-02-21T02:11:55.287Z,11.90
2023-02-21T02:14:49.689Z,11.80
2023-02-21T02:17:29.146Z,11.80
2023-02-21T02:20:15.582Z,11.80
2023-02-21T02:23:10.446Z,11.80
2023-02-21T02:26:07.936Z,11.80
2023-02-21T02:28:52.969Z,11.80
2023-02-21T02:31:54.028Z,11.80
2023-02-21T02:34:37.639Z,11.80
2023-02-21T02:37:14.318Z,11.80
2023-02-21T02:39:49.046Z,11.80
2023-02-21T02:42:24.556Z,11.80
2023-02-21T02:44:59.207Z,11.80
2023-02-21T02:47:34.171Z,11.80
2023-02-21T02:50:08.768Z,11.80
2023-02-21T02:52:39.475Z,11.70
2023-02-21T02:55:31.400Z,11.70
2023-02-21T02:58:00.919Z,11.70
2023-02-21T03:00:29.573Z,11.70
2023-02-21T03:03:13.314Z,11.70
2023-02-21T03:05:55.658Z,11.70
2023-02-21T03:08:34.376Z,11.70
2023-02-21T03:11:10.533Z,11.70
2023-02-21T03:13:44.420Z,11.70
2023-02-21T03:16:19.204Z,11.70
2023-02-21T03:18:50.271Z,11.70
2023-02-21T03:21:25.950Z,11.70
2023-02-21T03:23:58.362Z,11.70
2023-02-21T03:26:28.703Z,11.80
2023-02-21T03:29:04.435Z,11.80
2023-02-21T03:31:37.835Z,11.70
2023-02-21T03:34:06.018Z,11.80
2023-02-21T03:36:37.022Z,11.80
2023-02-21T03:39:05.503Z,11.80
2023-02-21T03:41:33.564Z,11.80
2023-02-21T03:44:01.706Z,11.80
2023-02-21T03:46:29.788Z,11.80
2023-02-21T03:48:57.846Z,11.80
2023-02-21T03:51:29.846Z,11.90
2023-02-21T03:53:59.329Z,11.80
2023-02-21T03:56:41.836Z,11.80
2023-02-21T03:59:30.465Z,11.80
2023-02-21T04:01:59.344Z,11.80
2023-02-21T04:04:30.119Z,11.80
2023-02-21T04:07:07.158Z,11.80
2023-02-21T04:09:36.691Z,11.80
2023-02-21T04:12:05.947Z,11.80
2023-02-21T04:14:36.049Z,11.80
2023-02-21T04:17:04.876Z,11.80
2023-02-21T04:19:33.598Z,11.80
2023-02-21T04:22:02.912Z,11.80
2023-02-21T04:24:31.721Z,11.80
2023-02-21T04:27:02.180Z,11.80
2023-02-21T04:29:33.968Z,11.80
2023-02-21T04:32:03.036Z,11.80
2023-02-21T04:34:32.222Z,11.80
2023-02-21T04:37:00.477Z,11.80
2023-02-21T04:39:28.582Z,11.80
2023-02-21T04:41:56.478Z,11.80
2023-02-21T04:44:25.845Z,11.80
2023-02-21T04:46:53.829Z,11.80
2023-02-21T04:49:21.947Z,11.80
2023-02-21T04:51:49.935Z,11.80
2023-02-21T04:54:18.203Z,11.80
2023-02-21T04:56:46.300Z,11.80
2023-02-21T04:59:14.512Z,11.70
2023-02-21T05:01:43.932Z,11.80
2023-02-21T05:04:12.009Z,11.80
2023-02-21T05:06:40.073Z,11.80
2023-02-21T05:09:08.251Z,11.80
2023-02-21T05:11:36.387Z,11.80
2023-02-21T05:14:04.775Z,11.80
2023-02-21T05:16:32.943Z,11.80
2023-02-21T05:19:02.849Z,11.90
2023-02-21T05:21:30.755Z,11.80
2023-02-21T05:23:58.989Z,11.80
2023-02-21T05:26:31.376Z,11.80
2023-02-21T05:28:59.965Z,11.80
2023-02-21T05:31:28.165Z,11.80
2023-02-21T05:33:56.957Z,11.70
2023-02-21T05:36:26.140Z,11.80
2023-02-21T05:38:56.443Z,11.80
2023-02-21T05:41:25.043Z,11.80
2023-02-21T05:43:53.361Z,11.80
2023-02-21T05:46:24.586Z,11.80
2023-02-21T05:48:53.432Z,11.80
2023-02-21T05:51:22.000Z,11.90
2023-02-21T05:53:51.769Z,11.80
2023-02-21T05:56:21.268Z,11.80
2023-02-21T05:58:50.548Z,11.80
2023-02-21T06:01:19.088Z,11.80
2023-02-21T06:03:47.001Z,11.80
2023-02-21T06:06:17.018Z,11.90
2023-02-21T06:08:46.592Z,11.90
2023-02-21T06:11:16.662Z,11.90
2023-02-21T06:13:44.916Z,11.90
2023-02-21T06:16:12.813Z,11.80
2023-02-21T06:18:40.875Z,11.90
2023-02-21T06:21:09.034Z,11.90
2023-02-21T06:23:36.906Z,11.80
2023-02-21T06:26:05.303Z,11.90
2023-02-21T06:28:34.561Z,11.90
2023-02-21T06:31:02.698Z,11.90
2023-02-21T06:33:30.599Z,11.80
2023-02-21T06:35:58.851Z,11.80
2023-02-21T06:38:27.502Z,11.80
2023-02-21T06:40:55.847Z,11.80
2023-02-21T06:43:23.691Z,11.80
2023-02-21T06:45:53.208Z,11.80
2023-02-21T06:48:21.365Z,11.80
2023-02-21T06:50:49.202Z,11.80
2023-02-21T06:53:17.186Z,11.80
2023-02-21T06:55:45.007Z,11.80
2023-02-21T06:58:12.887Z,11.80
2023-02-21T07:00:41.107Z,11.80
2023-02-21T07:03:10.291Z,11.80
2023-02-21T07:05:39.152Z,11.80
2023-02-21T07:08:07.479Z,11.80
2023-02-21T07:10:35.396Z,11.90
2023-02-21T07:13:03.551Z,11.80
2023-02-21T07:15:31.534Z,11.80
2023-02-21T07:17:59.723Z,11.80
2023-02-21T07:20:29.090Z,11.90
2023-02-21T07:22:56.990Z,11.80
2023-02-21T07:25:25.218Z,11.90
2023-02-21T07:27:53.780Z,11.90
2023-02-21T07:30:22.347Z,12.00
2023-02-21T07:32:50.308Z,12.00
2023-02-21T07:35:18.692Z,12.00
2023-02-21T07:37:48.184Z,12.00
2023-02-21T07:40:16.084Z,12.00
2023-02-21T07:42:44.737Z,12.10
2023-02-21T07:45:13.001Z,12.10
2023-02-21T07:47:41.405Z,12.10
2023-02-21T07:50:09.752Z,12.20
2023-02-21T07:52:38.013Z,12.20
2023-02-21T07:55:07.903Z,12.20
2023-02-21T07:57:36.110Z,12.20
2023-02-21T08:00:05.351Z,12.30
2023-02-21T08:02:40.869Z,12.30
2023-02-21T08:05:09.965Z,12.30
2023-02-21T08:07:38.227Z,12.30
2023-02-21T08:10:08.029Z,12.30
2023-02-21T08:12:35.975Z,12.40
2023-02-21T08:15:04.856Z,12.50
2023-02-21T08:17:33.265Z,12.40
2023-02-21T08:20:01.230Z,12.50
2023-02-21T08:22:29.169Z,12.50
2023-02-21T08:24:57.526Z,12.50
2023-02-21T08:27:26.943Z,12.60
2023-02-21T08:29:54.748Z,12.60
2023-02-21T08:32:22.851Z,12.60
2023-02-21T08:34:51.347Z,12.60
2023-02-21T08:37:19.970Z,12.70
2023-02-21T08:39:48.394Z,12.70
2023-02-21T08:42:16.522Z,12.70
2023-02-21T08:44:46.990Z,12.80
2023-02-21T08:47:15.767Z,12.80
2023-02-21T08:49:45.269Z,12.80
2023-02-21T08:52:13.399Z,12.90
2023-02-21T08:54:41.492Z,12.90
2023-02-21T08:57:09.476Z,12.90
2023-02-21T08:59:42.422Z,13.00
2023-02-21T09:02:17.210Z,13.10
2023-02-21T09:04:45.346Z,13.00
2023-02-21T09:07:14.082Z,13.10
2023-02-21T09:09:42.183Z,13.10
2023-02-21T09:12:10.798Z,13.30
2023-02-21T09:14:40.651Z,13.30
2023-02-21T09:17:10.439Z,13.40
2023-02-21T09:19:40.575Z,13.40
2023-02-21T09:22:09.397Z,13.50
2023-02-21T09:24:37.947Z,13.60
2023-02-21T09:27:07.119Z,13.70
2023-02-21T09:29:46.097Z,13.70
2023-02-21T09:32:15.358Z,13.80
2023-02-21T09:34:44.570Z,13.90
2023-02-21T09:37:12.674Z,14.00
2023-02-21T09:39:40.534Z,14.10
2023-02-21T09:42:08.748Z,14.20
2023-02-21T09:44:36.741Z,14.30
2023-02-21T09:47:07.388Z,14.40
2023-02-21T09:49:38.385Z,14.50
2023-02-21T09:52:17.338Z,14.60
2023-02-21T09:54:48.551Z,14.70
2023-02-21T09:57:19.183Z,14.80
2023-02-21T09:59:47.230Z,14.90
2023-02-21T10:02:30.915Z,14.90
2023-02-21T10:05:04.639Z,15.00
2023-02-21T10:07:42.154Z,15.00
2023-02-21T10:10:16.289Z,15.00
2023-02-21T10:12:51.735Z,15.10
2023-02-21T10:15:35.725Z,15.10
2023-02-21T10:18:09.050Z,15.20
2023-02-21T10:20:40.720Z,15.20
2023-02-21T10:23:17.450Z,15.30
2023-02-21T10:25:47.128Z,15.30
2023-02-21T10:28:19.906Z,15.40
2023-02-21T10:30:49.555Z,15.50
2023-02-21T10:33:17.792Z,15.50
2023-02-21T10:35:46.239Z,15.50
2023-02-21T10:38:20.056Z,15.60
2023-02-21T10:40:52.076Z,15.60
2023-02-21T10:43:24.596Z,15.60
2023-02-21T10:45:56.879Z,15.70
2023-02-21T10:48:29.202Z,15.70
2023-02-21T10:51:08.654Z,15.70
2023-02-21T10:53:40.183Z,15.80
2023-02-21T10:56:27.932Z,15.90
2023-02-21T10:59:00.699Z,15.90
2023-02-21T11:01:36.267Z,16.00
2023-02-21T11:04:07.601Z,16.00
2023-02-21T11:06:40.702Z,16.00
2023-02-21T11:09:33.341Z,16.00
2023-02-21T11:12:03.828Z,16.10
2023-02-21T11:14:33.469Z,16.10
2023-02-21T11:17:16.684Z,16.10
2023-02-21T11:19:47.938Z,16.20
2023-02-21T11:22:17.513Z,16.20
2023-02-21T11:24:50.920Z,16.30
2023-02-21T11:27:19.347Z,16.30
2023-02-21T11:29:51.365Z,16.40
2023-02-21T11:32:28.100Z,16.50
2023-02-21T11:35:05.737Z,16.70
2023-02-21T11:37:34.541Z,16.90
2023-02-21T11:40:05.788Z,17.30
2023-02-21T11:42:35.265Z,17.70
2023-02-21T11:45:21.908Z,18.20
2023-02-21T11:47:58.619Z,18.70
2023-02-21T11:50:28.852Z,19.10
2023-02-21T11:53:03.875Z,19.50
2023-02-21T11:55:35.018Z,20.00
2023-02-21T11:58:23.562Z,20.60
2023-02-21T12:01:02.940Z,21.30
2023-02-21T12:03:54.974Z,22.00
2023-02-21T12:06:30.930Z,22.70
2023-02-21T12:09:03.127Z,23.40
2023-02-21T12:11:45.311Z,23.90
2023-02-21T12:14:23.033Z,24.60
2023-02-21T12:17:01.888Z,25.20
2023-02-21T12:19:46.841Z,25.70
2023-02-21T12:22:29.330Z,26.10
2023-02-21T12:25:08.030Z,26.40
2023-02-21T12:27:46.614Z,26.90
2023-02-21T12:30:35.345Z,27.10
2023-02-21T12:33:12.454Z,27.50
2023-02-21T12:36:15.670Z,27.80
2023-02-21T12:39:02.015Z,28.10
2023-02-21T12:41:42.273Z,28.30
2023-02-21T12:44:16.453Z,28.60
2023-02-21T12:46:53.635Z,28.70
2023-02-21T12:49:27.118Z,28.80
2023-02-21T12:52:01.190Z,29.10
2023-02-21T12:54:38.993Z,29.10
2023-02-21T12:57:11.149Z,29.30
2023-02-21T12:59:52.374Z,29.30
2023-02-21T13:02:27.969Z,29.60
2023-02-21T13:05:00.273Z,29.60
2023-02-21T13:07:36.879Z,29.60
2023-02-21T13:10:08.641Z,29.70
2023-02-21T13:12:40.262Z,29.70
2023-02-21T13:15:19.067Z,29.70
2023-02-21T13:17:56.637Z,29.70
2023-02-21T13:20:27.506Z,29.60
2023-02-21T13:23:51.943Z,29.60
2023-02-21T13:26:56.994Z,29.60
2023-02-21T13:29:28.318Z,29.60
2023-02-21T13:32:01.915Z,29.60
2023-02-21T13:34:37.703Z,29.60
2023-02-21T13:37:08.600Z,29.50
2023-02-21T13:39:38.508Z,29.50
2023-02-21T13:42:10.163Z,29.50
2023-02-21T13:44:41.309Z,29.40
2023-02-21T13:47:15.845Z,29.40
2023-02-21T13:49:48.203Z,29.30
2023-02-21T13:52:37.301Z,29.30
2023-02-21T13:55:32.716Z,29.20
2023-02-21T13:58:45.068Z,29.20
2023-02-21T14:01:38.867Z,29.10
2023-02-21T14:04:40.208Z,29.00
2023-02-21T14:07:10.422Z,29.00
2023-02-21T14:09:41.877Z,28.90
2023-02-21T14:12:12.653Z,28.90
2023-02-21T14:14:42.406Z,28.80
2023-02-21T14:17:13.262Z,28.70
2023-02-21T14:19:47.059Z,28.70
2023-02-21T14:22:20.344Z,28.70
2023-02-21T14:24:51.437Z,28.70
2023-02-21T14:27:36.200Z,28.60
2023-02-21T14:30:27.573Z,28.60
2023-02-21T14:32:58.863Z,28.50
2023-02-21T14:35:33.247Z,28.60
2023-02-21T14:38:05.105Z,28.50
2023-02-21T14:40:46.315Z,28.50
2023-02-21T14:43:41.420Z,28.50
2023-02-21T14:46:34.243Z,28.50
2023-02-21T14:49:24.501Z,28.50
2023-02-21T14:52:14.452Z,28.40
2023-02-21T14:55:23.097Z,28.30
2023-02-21T14:58:15.979Z,28.20
2023-02-21T15:01:00.686Z,28.10
2023-02-21T15:03:33.772Z,27.90
2023-02-21T15:06:06.800Z,27.90
2023-02-21T15:08:43.583Z,27.70
2023-02-21T15:11:26.610Z,27.60
2023-02-21T15:14:22.495Z,27.50
2023-02-21T15:16:54.693Z,27.40
2023-02-21T15:19:28.904Z,27.20
2023-02-21T15:22:25.054Z,27.10
2023-02-21T15:25:16.272Z,26.90
2023-02-21T15:27:57.910Z,26.80
2023-02-21T15:30:28.618Z,26.60
2023-02-21T15:33:00.999Z,26.50
2023-02-21T15:35:44.207Z,26.30
2023-02-21T15:38:18.657Z,26.20
2023-02-21T15:40:48.232Z,26.20
2023-02-21T15:43:30.064Z,26.10
2023-02-21T15:46:00.495Z,25.90
2023-02-21T15:48:29.290Z,25.90
2023-02-21T15:51:04.040Z,25.80
2023-02-21T15:53:32.236Z,25.70
2023-02-21T15:56:20.323Z,25.70
2023-02-21T15:59:11.846Z,25.60
2023-02-21T16:01:40.899Z,25.50
2023-02-21T16:04:17.270Z,25.40
2023-02-21T16:07:03.297Z,25.30
2023-02-21T16:09:34.848Z,25.20
2023-02-21T16:12:07.961Z,25.10
2023-02-21T16:14:42.218Z,24.90
2023-02-21T16:17:21.536Z,24.70
2023-02-21T16:19:53.940Z,24.40
2023-02-21T16:22:35.940Z,24.10
2023-02-21T16:25:16.847Z,23.70
2023-02-21T16:27:47.681Z,23.30
2023-02-21T16:30:19.039Z,23.00
2023-02-21T16:32:48.723Z,22.70
2023-02-21T16:35:20.559Z,22.30
2023-02-21T16:37:50.882Z,22.10
2023-02-21T16:40:23.795Z,21.70
2023-02-21T16:42:52.674Z,21.40
2023-02-21T16:45:22.222Z,21.20
2023-02-21T16:47:51.961Z,20.90
2023-02-21T16:50:26.923Z,20.60
2023-02-21T16:52:54.988Z,20.40
2023-02-21T16:55:23.171Z,20.10
2023-02-21T16:57:53.833Z,19.90
2023-02-21T17:00:23.600Z,19.70
2023-02-21T17:02:53.054Z,19.50
2023-02-21T17:05:22.424Z,19.30
2023-02-21T17:07:51.779Z,19.10
2023-02-21T17:10:20.167Z,18.90
2023-02-21T17:12:48.882Z,18.70
2023-02-21T17:15:17.391Z,18.50
2023-02-21T17:17:53.079Z,18.40
2023-02-21T17:20:23.019Z,18.20
2023-02-21T17:22:50.998Z,18.00
2023-02-21T17:25:19.936Z,17.90
2023-02-21T17:27:48.034Z,17.70
2023-02-21T17:30:17.038Z,17.50
2023-02-21T17:32:47.620Z,17.40
2023-02-21T17:35:16.303Z,17.20
2023-02-21T17:37:45.078Z,17.10
2023-02-21T17:40:13.192Z,16.90
2023-02-21T17:42:41.682Z,16.80
2023-02-21T17:45:10.712Z,16.70
2023-02-21T17:47:39.364Z,16.50
2023-02-21T17:50:09.665Z,16.40
2023-02-21T17:52:37.624Z,16.30
2023-02-21T17:55:08.003Z,16.20
2023-02-21T17:57:37.977Z,16.10
2023-02-21T18:00:10.920Z,16.00
2023-02-21T18:02:39.028Z,15.80
2023-02-21T18:05:09.346Z,15.70
2023-02-21T18:07:37.321Z,15.60
2023-02-21T18:10:06.344Z,15.50
2023-02-21T18:13:27.447Z,15.40
2023-02-21T18:15:55.319Z,15.30
2023-02-21T18:18:23.386Z,15.20
2023-02-21T18:20:53.254Z,15.10
2023-02-21T18:23:22.767Z,15.00
2023-02-21T18:25:50.848Z,14.90
2023-02-21T18:28:19.130Z,14.80
2023-02-21T18:30:47.479Z,14.70
2023-02-21T18:33:15.884Z,14.70
2023-02-21T18:35:43.802Z,14.50
2023-02-21T18:38:16.068Z,14.60
2023-02-21T18:40:45.527Z,14.40
2023-02-21T18:43:20.470Z,14.30
2023-02-21T18:45:49.474Z,14.20
2023-02-21T18:48:18.342Z,14.20
2023-02-21T18:50:46.661Z,14.20
2023-02-21T18:53:16.835Z,14.00
2023-02-21T18:55:45.021Z,14.00
2023-02-21T18:58:13.477Z,13.90
2023-02-21T19:00:41.424Z,13.80
2023-02-21T19:03:11.312Z,13.80
2023-02-21T19:05:39.304Z,13.80
2023-02-21T19:08:08.291Z,13.60
2023-02-21T19:10:37.686Z,13.50
2023-02-21T19:13:31.063Z,13.50
2023-02-21T19:15:59.917Z,13.40
2023-02-21T19:18:30.637Z,13.30
2023-02-21T19:20:59.072Z,13.20
2023-02-21T19:23:27.796Z,13.10
2023-02-21T19:25:57.463Z,13.10
2023-02-21T19:28:28.757Z,13.00
2023-02-21T19:30:56.873Z,12.90
2023-02-21T19:33:24.701Z,12.90
2023-02-21T19:35:53.269Z,12.80
2023-02-21T19:38:21.307Z,12.70
2023-02-21T19:40:49.491Z,12.70
2023-02-21T19:43:19.495Z,12.60
2023-02-21T19:45:47.455Z,12.60
2023-02-21T19:48:16.841Z,12.50
2023-02-21T19:50:45.072Z,12.60
2023-02-21T19:53:13.176Z,12.40
2023-02-21T19:55:41.280Z,12.40
2023-02-21T19:58:10.020Z,12.30
2023-02-21T20:00:42.169Z,12.20
2023-02-21T20:03:10.395Z,12.20
2023-02-21T20:05:38.626Z,12.10
2023-02-21T20:08:06.842Z,12.10
2023-02-21T20:10:35.023Z,12.00
2023-02-21T20:13:06.293Z,12.00
2023-02-21T20:15:35.694Z,11.90
2023-02-21T20:18:05.719Z,11.90
2023-02-21T20:20:34.020Z,11.80
2023-02-21T20:23:03.621Z,11.70
2023-02-21T20:25:31.665Z,11.70
2023-02-21T20:27:59.826Z,11.60
2023-02-21T20:30:28.117Z,11.60
2023-02-21T20:32:57.006Z,11.60
2023-02-21T20:35:26.691Z,11.50
2023-02-21T20:37:55.435Z,11.40
2023-02-21T20:40:24.083Z,11.40
2023-02-21T20:42:52.202Z,11.30
2023-02-21T20:45:20.031Z,11.30
2023-02-21T20:47:48.230Z,11.20
2023-02-21T20:50:19.996Z,11.20
2023-02-21T20:52:49.720Z,11.10
2023-02-21T20:55:22.106Z,11.10
2023-02-21T20:57:50.753Z,11.00
2023-02-21T21:00:23.317Z,11.00
2023-02-21T21:02:51.868Z,10.90
2023-02-21T21:05:21.106Z,10.90
2023-02-21T21:07:50.536Z,10.80
2023-02-21T21:10:18.905Z,10.80
2023-02-21T21:12:47.310Z,10.70
2023-02-21T21:15:15.392Z,10.70
2023-02-21T21:17:43.929Z,10.60
2023-02-21T21:20:14.434Z,10.60
2023-02-21T21:22:42.588Z,10.60
2023-02-21T21:25:12.242Z,10.50
2023-02-21T21:27:42.571Z,10.50
2023-02-21T21:30:13.155Z,10.40
2023-02-21T21:32:41.889Z,10.40
2023-02-21T21:35:11.125Z,10.40
2023-02-21T21:37:39.427Z,10.30
2023-02-21T21:40:15.651Z,10.30
2023-02-21T21:42:46.538Z,10.20
2023-02-21T21:45:22.153Z,10.20
2023-02-21T21:47:53.549Z,10.10
2023-02-21T21:50:22.550Z,10.10
2023-02-21T21:52:52.526Z,10.00
2023-02-21T21:55:22.858Z,10.00
2023-02-21T21:57:54.194Z,10.00
2023-02-21T22:00:24.284Z,9.90
2023-02-21T22:02:57.132Z,9.90
2023-02-21T22:05:25.697Z,9.80
2023-02-21T22:07:54.310Z,9.80
2023-02-21T22:10:23.818Z,9.80
2023-02-21T22:12:54.423Z,9.80
2023-02-21T22:15:25.071Z,9.70
2023-02-21T22:17:53.644Z,9.60
2023-02-21T22:20:28.448Z,9.60
2023-02-21T22:22:58.649Z,9.60
2023-02-21T22:25:30.159Z,9.60
2023-02-21T22:28:00.431Z,9.50
2023-02-21T22:30:28.799Z,9.50
2023-02-21T22:32:57.063Z,9.50
2023-02-21T22:35:28.512Z,9.50
2023-02-21T22:37:58.691Z,9.50
2023-02-21T22:40:28.032Z,9.40
2023-02-21T22:42:59.413Z,9.40
2023-02-21T22:45:33.140Z,9.40
2023-02-21T22:48:03.693Z,9.40
2023-02-21T22:50:36.818Z,9.30
2023-02-21T22:53:08.374Z,9.30
2023-02-21T22:55:38.072Z,9.30
2023-02-21T22:58:08.273Z,9.30
2023-02-21T23:00:38.816Z,9.30
2023-02-21T23:03:13.108Z,9.30
2023-02-21T23:05:43.519Z,9.30
2023-02-21T23:08:13.543Z,9.30
2023-02-21T23:10:42.907Z,9.20
2023-02-21T23:13:14.121Z,9.20
2023-02-21T23:15:44.466Z,9.20
2023-02-21T23:18:18.098Z,9.20
2023-02-21T23:20:46.219Z,9.20
2023-02-21T23:23:15.006Z,9.10
2023-02-21T23:25:43.132Z,9.10
2023-02-21T23:28:14.271Z,9.10
2023-02-21T23:30:46.206Z,9.10
2023-02-21T23:33:17.032Z,9.10
2023-02-21T23:35:46.588Z,9.10
2023-02-21T23:38:16.293Z,9.10
2023-02-21T23:40:45.636Z,9.00
2023-02-21T23:43:15.990Z,9.10
2023-02-21T23:45:48.275Z,9.10
2023-02-21T23:48:16.390Z,9.10
2023-02-21T23:50:46.517Z,9.10
2023-02-21T23:53:18.327Z,9.10
2023-02-21T23:55:47.532Z,9.10
2023-02-21T23:58:18.154Z,9.10
